Superfast Xii — SYCD — position and weather

sailwx.info

Track history (hours):
 
Tides and Currents Weather Stations Pressure Air Temp Water Temp Dewpoint Dewpoint Depression Visibility Wind Speed Wind Dir Waves Ship Positions

Superfast Xii

Last reported at 2017-Oct-23 04:30 UTC. Time now 2017-Oct-23 04:35 UTC.
Position N 37°46' E 023°43'.

Length 200 m; draft 6.5 m.

Type: Passenger vessel. MMSI: 239919000.

Date/timePositionNaut miles runAvg speedWind from/ knotsBaromVisibWave heightAir tempDewpointWater temp
2017-Oct-23 04:30N 37°46' E 023°43'5021.4
2017-Oct-23 02:09N 37°32' E 024°44'322.8
2017-Oct-23 02:01N 37°32' E 024°48'918.3
2017-Oct-23 01:31N 37°27' E 024°58'2 4.8
2017-Oct-23 01:00N 37°26' E 025°00'1122.8
2017-Oct-23 00:30N 37°21' E 025°13'1122.5
2017-Oct-23 00:00N 37°20' E 025°28'1122.3
2017-Oct-22 23:30N 37°19' E 025°42'9 0.2
2017-Oct-20 21:53N 37°18' E 025°53'1024.8
2017-Oct-20 21:30N 37°19' E 025°41'1224.4
2017-Oct-20 21:01N 37°20' E 025°26'1224.1
2017-Oct-20 20:30N 37°21' E 025°11'1223.9
2017-Oct-20 20:00N 37°26' E 024°57'3 5.5
2017-Oct-20 19:30N 37°29' E 024°58'3124.6
2017-Oct-20 18:14N 37°30' E 024°18'625.3
2017-Oct-20 18:00N 37°32' E 024°11'1325.7
2017-Oct-20 17:30N 37°36' E 023°55'1225.0
2017-Oct-20 17:01N 37°41' E 023°42'1224.9
2017-Oct-20 16:31N 37°53' E 023°37'3 5.6
2017-Oct-20 15:55N 37°56' E 023°37'0 0.0
2017-Oct-20 15:28N 37°56' E 023°37'0 0.0
2017-Oct-20 14:58N 37°56' E 023°37'0 0.0
2017-Oct-20 13:58N 37°56' E 023°37'0 0.0
2017-Oct-20 13:28N 37°56' E 023°37'0 0.0
2017-Oct-20 12:58N 37°56' E 023°37'0 0.0
2017-Oct-20 12:28N 37°56' E 023°37'0 0.0
2017-Oct-20 11:58N 37°56' E 023°37'0 0.0
2017-Oct-20 11:25N 37°56' E 023°37'0 0.0
2017-Oct-20 10:58N 37°56' E 023°37'0 0.0
2017-Oct-20 10:28N 37°56' E 023°37'0 0.0
2017-Oct-20 09:58N 37°56' E 023°37'0 0.0
2017-Oct-20 09:28N 37°56' E 023°37'0 0.0
2017-Oct-20 08:58N 37°56' E 023°37'0 0.0
2017-Oct-20 08:28N 37°56' E 023°37'0 0.0
2017-Oct-20 07:58N 37°56' E 023°37'0 0.0
2017-Oct-20 07:30N 37°56' E 023°37'0 0.0
2017-Oct-20 07:00N 37°56' E 023°37'0 0.0
2017-Oct-20 06:30N 37°56' E 023°37'0 0.0
2017-Oct-20 06:00N 37°56' E 023°37'0 0.0
2017-Oct-20 05:30N 37°56' E 023°37'1 1.9
2017-Oct-20 05:00N 37°56' E 023°37'1020.8
2017-Oct-20 04:30N 37°46' E 023°42'5121.4
2017-Oct-20 02:08N 37°32' E 024°44'321.9
2017-Oct-20 02:00N 37°32' E 024°47'918.6
2017-Oct-20 01:30N 37°28' E 024°58'1 3.0
2017-Oct-20 01:00N 37°26' E 024°59'1122.0
2017-Oct-20 00:30N 37°22' E 025°11'1122.2
2017-Oct-20 00:01N 37°20' E 025°25'1223.3
2017-Oct-19 23:29N 37°19' E 025°41'10 0.4
2017-Oct-18 21:57N 37°18' E 025°53'1525.0
2017-Oct-18 21:21N 37°19' E 025°34'824.6
2017-Oct-18 21:00N 37°20' E 025°24'1224.9
2017-Oct-18 20:30N 37°23' E 025°08'1019.9
2017-Oct-18 20:00N 37°26' E 024°57'3 6.3
2017-Oct-18 19:31N 37°29' E 024°57'4324.3
2017-Oct-18 17:43N 37°34' E 024°03'625.7
2017-Oct-18 17:30N 37°35' E 023°56'1225.3
2017-Oct-18 17:01N 37°41' E 023°42'1224.8
2017-Oct-18 16:31N 37°53' E 023°37'4 6.7
2017-Oct-18 15:58N 37°56' E 023°37'0 0.0
2017-Oct-18 15:28N 37°56' E 023°37'0 0.0
2017-Oct-18 14:58N 37°56' E 023°37'0 0.0
2017-Oct-18 13:58N 37°56' E 023°37'0 0.0
2017-Oct-18 13:28N 37°56' E 023°37'0 0.0
2017-Oct-18 12:58N 37°56' E 023°37'0 0.0
2017-Oct-18 12:28N 37°56' E 023°37'0 0.0
2017-Oct-18 12:01N 37°56' E 023°37'0 0.0
2017-Oct-18 11:30N 37°56' E 023°37'0 0.0
2017-Oct-18 10:57N 37°56' E 023°37'0 0.0
2017-Oct-18 10:30N 37°56' E 023°37'0 0.0
2017-Oct-18 10:00N 37°56' E 023°37'0 0.0
2017-Oct-18 09:27N 37°56' E 023°37'0 0.0
2017-Oct-18 09:00N 37°56' E 023°37'0 0.0
2017-Oct-18 08:30N 37°56' E 023°37'0 0.0
2017-Oct-18 08:00N 37°56' E 023°37'0 0.0
2017-Oct-18 07:30N 37°56' E 023°37'0 0.0
2017-Oct-18 07:00N 37°56' E 023°37'0 0.0
2017-Oct-18 06:30N 37°56' E 023°37'0 0.0
2017-Oct-18 06:00N 37°56' E 023°37'0 0.0
2017-Oct-18 05:30N 37°56' E 023°37'4 7.9
2017-Oct-18 05:01N 37°53' E 023°38'1223.4
2017-Oct-18 04:31N 37°42' E 023°45'4820.7
2017-Oct-18 02:11N 37°32' E 024°44'421.6
2017-Oct-18 02:01N 37°32' E 024°49'917.9
2017-Oct-18 01:31N 37°27' E 024°58'4 8.5
2017-Oct-18 01:00N 37°25' E 025°03'612.6
2017-Oct-18 00:31N 37°22' E 025°10'1122.0
2017-Oct-18 00:01N 37°20' E 025°23'1422.9
2017-Oct-17 23:24N 37°19' E 025°41'820.1
2017-Oct-17 23:00N 37°18' E 025°51'2 0.1
2017-Oct-16 22:26N 37°18' E 025°53'1022.4
2017-Oct-16 22:00N 37°19' E 025°41'1122.3
2017-Oct-16 21:30N 37°20' E 025°28'1121.8
2017-Oct-16 21:00N 37°21' E 025°14'1122.0
2017-Oct-16 20:29N 37°26' E 025°01'3 6.8
2017-Oct-16 19:59N 37°26' E 024°57'711.3
2017-Oct-16 19:24N 37°32' E 024°52'3022.7
2017-Oct-16 18:05N 37°30' E 024°14'1123.1
2017-Oct-16 17:37N 37°34' E 024°02'423.5
2017-Oct-16 17:28N 37°35' E 023°57'1023.1
2017-Oct-16 17:00N 37°39' E 023°45'1122.6
2017-Oct-16 16:30N 37°49' E 023°37'815.0
2017-Oct-16 16:00N 37°56' E 023°37'0 0.0
2017-Oct-16 15:30N 37°56' E 023°37'0 0.0
2017-Oct-16 15:00N 37°56' E 023°37'0 0.0
2017-Oct-16 14:00N 37°56' E 023°37'0 0.0
2017-Oct-16 13:30N 37°56' E 023°37'0 0.0
2017-Oct-16 13:00N 37°56' E 023°37'0 0.0
2017-Oct-16 12:27N 37°56' E 023°37'0 0.0
2017-Oct-16 12:00N 37°56' E 023°37'0 0.0
2017-Oct-16 11:30N 37°56' E 023°37'0 0.0
2017-Oct-16 11:00N 37°56' E 023°37'0 0.0
2017-Oct-16 10:30N 37°56' E 023°37'0 0.0
2017-Oct-16 10:00N 37°56' E 023°37'0 0.0
2017-Oct-16 09:30N 37°56' E 023°37'0 0.0
2017-Oct-16 08:59N 37°56' E 023°37'0 0.0
2017-Oct-16 08:29N 37°56' E 023°37'0 0.0
2017-Oct-16 07:59N 37°56' E 023°37'0 0.0
2017-Oct-16 07:29N 37°56' E 023°37'0 0.0
2017-Oct-16 06:59N 37°56' E 023°37'0 0.0
2017-Oct-16 06:26N 37°56' E 023°37'0 0.0
2017-Oct-16 05:59N 37°56' E 023°37'0 0.0
2017-Oct-16 05:29N 37°56' E 023°37'2 3.7
2017-Oct-16 05:01N 37°55' E 023°37'1121.8
2017-Oct-16 04:31N 37°45' E 023°43'5021.8
2017-Oct-16 02:13N 37°33' E 024°44'522.6
2017-Oct-16 02:01N 37°32' E 024°50'816.5
2017-Oct-16 01:31N 37°26' E 024°57'3 5.4
2017-Oct-16 01:00N 37°26' E 025°00'1325.8
2017-Oct-16 00:31N 37°21' E 025°15'1326.4
2017-Oct-16 00:01N 37°20' E 025°32'1326.5
2017-Oct-15 23:31N 37°18' E 025°48'4 0.1
2017-Oct-13 21:54N 37°18' E 025°53'1524.3
2017-Oct-13 21:17N 37°19' E 025°34'723.9
2017-Oct-13 21:01N 37°20' E 025°26'1224.2
2017-Oct-13 20:31N 37°22' E 025°11'1224.0
2017-Oct-13 20:01N 37°26' E 024°57'0 1.0
2017-Oct-13 19:31N 37°26' E 024°58'1020.4
2017-Oct-13 19:01N 37°32' E 024°47'3524.9
2017-Oct-13 17:36N 37°34' E 024°02'425.5
2017-Oct-13 17:27N 37°35' E 023°58'1125.7
2017-Oct-13 17:01N 37°39' E 023°44'1325.2
2017-Oct-13 16:31N 37°50' E 023°37'611.7
2017-Oct-13 15:58N 37°56' E 023°37'0 0.0
2017-Oct-13 15:28N 37°56' E 023°37'0 0.0
2017-Oct-13 14:58N 37°56' E 023°37'0 0.0
2017-Oct-13 14:28N 37°56' E 023°37'0 0.0
2017-Oct-13 13:58N 37°56' E 023°37'0 0.0
2017-Oct-13 13:28N 37°56' E 023°37'0 0.0
2017-Oct-13 12:58N 37°56' E 023°37'0 0.0
2017-Oct-13 12:28N 37°56' E 023°37'0 0.0
2017-Oct-13 11:58N 37°56' E 023°37'0 0.2
2017-Oct-13 11:30N 37°56' E 023°38'0 0.4
2017-Oct-13 10:58N 37°57' E 023°38'0 0.0
2017-Oct-13 10:28N 37°57' E 023°38'0 0.0
2017-Oct-13 09:58N 37°57' E 023°38'0 0.0
2017-Oct-13 09:28N 37°57' E 023°38'0 0.0
2017-Oct-13 08:52N 37°57' E 023°38'0 0.0
2017-Oct-13 08:31N 37°57' E 023°38'0 0.2
2017-Oct-13 08:00N 37°57' E 023°38'0 0.1
2017-Oct-13 07:30N 37°57' E 023°38'0 0.0
2017-Oct-13 07:00N 37°57' E 023°38'0 0.0
2017-Oct-13 06:30N 37°57' E 023°38'0 0.0
2017-Oct-13 06:00N 37°57' E 023°38'0 0.0
2017-Oct-13 05:30N 37°57' E 023°38'2 3.8
2017-Oct-13 05:01N 37°55' E 023°37'1121.5
2017-Oct-13 04:31N 37°45' E 023°43'  
Track history (hours):
 
Tides and Currents Weather Stations Pressure Air Temp Water Temp Dewpoint Dewpoint Depression Visibility Wind Speed Wind Dir Waves Ship Positions

Superfast Xii

Last reported at 2017-Oct-23 04:30 UTC. Time now 2017-Oct-23 04:35 UTC.
Position N 37°46' E 023°43'.

Length 200 m; draft 6.5 m.

Type: Passenger vessel. MMSI: 239919000.

Date/timePositionNaut miles runAvg speedWind from/ knotsBaromVisibWave heightAir tempDewpointWater temp
2017-Oct-23 04:30N 37°46' E 023°43'5021.4
2017-Oct-23 02:09N 37°32' E 024°44'322.8
2017-Oct-23 02:01N 37°32' E 024°48'918.3
2017-Oct-23 01:31N 37°27' E 024°58'2 4.8
2017-Oct-23 01:00N 37°26' E 025°00'1122.8
2017-Oct-23 00:30N 37°21' E 025°13'1122.5
2017-Oct-23 00:00N 37°20' E 025°28'1122.3
2017-Oct-22 23:30N 37°19' E 025°42'9 0.2
2017-Oct-20 21:53N 37°18' E 025°53'1024.8
2017-Oct-20 21:30N 37°19' E 025°41'1224.4
2017-Oct-20 21:01N 37°20' E 025°26'1224.1
2017-Oct-20 20:30N 37°21' E 025°11'1223.9
2017-Oct-20 20:00N 37°26' E 024°57'3 5.5
2017-Oct-20 19:30N 37°29' E 024°58'3124.6
2017-Oct-20 18:14N 37°30' E 024°18'625.3
2017-Oct-20 18:00N 37°32' E 024°11'1325.7
2017-Oct-20 17:30N 37°36' E 023°55'1225.0
2017-Oct-20 17:01N 37°41' E 023°42'1224.9
2017-Oct-20 16:31N 37°53' E 023°37'3 5.6
2017-Oct-20 15:55N 37°56' E 023°37'0 0.0
2017-Oct-20 15:28N 37°56' E 023°37'0 0.0
2017-Oct-20 14:58N 37°56' E 023°37'0 0.0
2017-Oct-20 13:58N 37°56' E 023°37'0 0.0
2017-Oct-20 13:28N 37°56' E 023°37'0 0.0
2017-Oct-20 12:58N 37°56' E 023°37'0 0.0
2017-Oct-20 12:28N 37°56' E 023°37'0 0.0
2017-Oct-20 11:58N 37°56' E 023°37'0 0.0
2017-Oct-20 11:25N 37°56' E 023°37'0 0.0
2017-Oct-20 10:58N 37°56' E 023°37'0 0.0
2017-Oct-20 10:28N 37°56' E 023°37'0 0.0
2017-Oct-20 09:58N 37°56' E 023°37'0 0.0
2017-Oct-20 09:28N 37°56' E 023°37'0 0.0
2017-Oct-20 08:58N 37°56' E 023°37'0 0.0
2017-Oct-20 08:28N 37°56' E 023°37'0 0.0
2017-Oct-20 07:58N 37°56' E 023°37'0 0.0
2017-Oct-20 07:30N 37°56' E 023°37'0 0.0
2017-Oct-20 07:00N 37°56' E 023°37'0 0.0
2017-Oct-20 06:30N 37°56' E 023°37'0 0.0
2017-Oct-20 06:00N 37°56' E 023°37'0 0.0
2017-Oct-20 05:30N 37°56' E 023°37'1 1.9
2017-Oct-20 05:00N 37°56' E 023°37'1020.8
2017-Oct-20 04:30N 37°46' E 023°42'5121.4
2017-Oct-20 02:08N 37°32' E 024°44'321.9
2017-Oct-20 02:00N 37°32' E 024°47'918.6
2017-Oct-20 01:30N 37°28' E 024°58'1 3.0
2017-Oct-20 01:00N 37°26' E 024°59'1122.0
2017-Oct-20 00:30N 37°22' E 025°11'1122.2
2017-Oct-20 00:01N 37°20' E 025°25'1223.3
2017-Oct-19 23:29N 37°19' E 025°41'10 0.4
2017-Oct-18 21:57N 37°18' E 025°53'1525.0
2017-Oct-18 21:21N 37°19' E 025°34'824.6
2017-Oct-18 21:00N 37°20' E 025°24'1224.9
2017-Oct-18 20:30N 37°23' E 025°08'1019.9
2017-Oct-18 20:00N 37°26' E 024°57'3 6.3
2017-Oct-18 19:31N 37°29' E 024°57'4324.3
2017-Oct-18 17:43N 37°34' E 024°03'625.7
2017-Oct-18 17:30N 37°35' E 023°56'1225.3
2017-Oct-18 17:01N 37°41' E 023°42'1224.8
2017-Oct-18 16:31N 37°53' E 023°37'4 6.7
2017-Oct-18 15:58N 37°56' E 023°37'0 0.0
2017-Oct-18 15:28N 37°56' E 023°37'0 0.0
2017-Oct-18 14:58N 37°56' E 023°37'0 0.0
2017-Oct-18 13:58N 37°56' E 023°37'0 0.0
2017-Oct-18 13:28N 37°56' E 023°37'0 0.0
2017-Oct-18 12:58N 37°56' E 023°37'0 0.0
2017-Oct-18 12:28N 37°56' E 023°37'0 0.0
2017-Oct-18 12:01N 37°56' E 023°37'0 0.0
2017-Oct-18 11:30N 37°56' E 023°37'0 0.0
2017-Oct-18 10:57N 37°56' E 023°37'0 0.0
2017-Oct-18 10:30N 37°56' E 023°37'0 0.0
2017-Oct-18 10:00N 37°56' E 023°37'0 0.0
2017-Oct-18 09:27N 37°56' E 023°37'0 0.0
2017-Oct-18 09:00N 37°56' E 023°37'0 0.0
2017-Oct-18 08:30N 37°56' E 023°37'0 0.0
2017-Oct-18 08:00N 37°56' E 023°37'0 0.0
2017-Oct-18 07:30N 37°56' E 023°37'0 0.0
2017-Oct-18 07:00N 37°56' E 023°37'0 0.0
2017-Oct-18 06:30N 37°56' E 023°37'0 0.0
2017-Oct-18 06:00N 37°56' E 023°37'0 0.0
2017-Oct-18 05:30N 37°56' E 023°37'4 7.9
2017-Oct-18 05:01N 37°53' E 023°38'1223.4
2017-Oct-18 04:31N 37°42' E 023°45'4820.7
2017-Oct-18 02:11N 37°32' E 024°44'421.6
2017-Oct-18 02:01N 37°32' E 024°49'917.9
2017-Oct-18 01:31N 37°27' E 024°58'4 8.5
2017-Oct-18 01:00N 37°25' E 025°03'612.6
2017-Oct-18 00:31N 37°22' E 025°10'1122.0
2017-Oct-18 00:01N 37°20' E 025°23'1422.9
2017-Oct-17 23:24N 37°19' E 025°41'820.1
2017-Oct-17 23:00N 37°18' E 025°51'2 0.1
2017-Oct-16 22:26N 37°18' E 025°53'1022.4
2017-Oct-16 22:00N 37°19' E 025°41'1122.3
2017-Oct-16 21:30N 37°20' E 025°28'1121.8
2017-Oct-16 21:00N 37°21' E 025°14'1122.0
2017-Oct-16 20:29N 37°26' E 025°01'3 6.8
2017-Oct-16 19:59N 37°26' E 024°57'711.3
2017-Oct-16 19:24N 37°32' E 024°52'3022.7
2017-Oct-16 18:05N 37°30' E 024°14'1123.1
2017-Oct-16 17:37N 37°34' E 024°02'423.5
2017-Oct-16 17:28N 37°35' E 023°57'1023.1
2017-Oct-16 17:00N 37°39' E 023°45'1122.6
2017-Oct-16 16:30N 37°49' E 023°37'815.0
2017-Oct-16 16:00N 37°56' E 023°37'0 0.0
2017-Oct-16 15:30N 37°56' E 023°37'0 0.0
2017-Oct-16 15:00N 37°56' E 023°37'0 0.0
2017-Oct-16 14:00N 37°56' E 023°37'0 0.0
2017-Oct-16 13:30N 37°56' E 023°37'0 0.0
2017-Oct-16 13:00N 37°56' E 023°37'0 0.0
2017-Oct-16 12:27N 37°56' E 023°37'0 0.0
2017-Oct-16 12:00N 37°56' E 023°37'0 0.0
2017-Oct-16 11:30N 37°56' E 023°37'0 0.0
2017-Oct-16 11:00N 37°56' E 023°37'0 0.0
2017-Oct-16 10:30N 37°56' E 023°37'0 0.0
2017-Oct-16 10:00N 37°56' E 023°37'0 0.0
2017-Oct-16 09:30N 37°56' E 023°37'0 0.0
2017-Oct-16 08:59N 37°56' E 023°37'0 0.0
2017-Oct-16 08:29N 37°56' E 023°37'0 0.0
2017-Oct-16 07:59N 37°56' E 023°37'0 0.0
2017-Oct-16 07:29N 37°56' E 023°37'0 0.0
2017-Oct-16 06:59N 37°56' E 023°37'0 0.0
2017-Oct-16 06:26N 37°56' E 023°37'0 0.0
2017-Oct-16 05:59N 37°56' E 023°37'0 0.0
2017-Oct-16 05:29N 37°56' E 023°37'2 3.7
2017-Oct-16 05:01N 37°55' E 023°37'1121.8
2017-Oct-16 04:31N 37°45' E 023°43'5021.8
2017-Oct-16 02:13N 37°33' E 024°44'522.6
2017-Oct-16 02:01N 37°32' E 024°50'816.5
2017-Oct-16 01:31N 37°26' E 024°57'3 5.4
2017-Oct-16 01:00N 37°26' E 025°00'1325.8
2017-Oct-16 00:31N 37°21' E 025°15'1326.4
2017-Oct-16 00:01N 37°20' E 025°32'1326.5
2017-Oct-15 23:31N 37°18' E 025°48'4 0.1
2017-Oct-13 21:54N 37°18' E 025°53'1524.3
2017-Oct-13 21:17N 37°19' E 025°34'723.9
2017-Oct-13 21:01N 37°20' E 025°26'1224.2
2017-Oct-13 20:31N 37°22' E 025°11'1224.0
2017-Oct-13 20:01N 37°26' E 024°57'0 1.0
2017-Oct-13 19:31N 37°26' E 024°58'1020.4
2017-Oct-13 19:01N 37°32' E 024°47'3524.9
2017-Oct-13 17:36N 37°34' E 024°02'425.5
2017-Oct-13 17:27N 37°35' E 023°58'1125.7
2017-Oct-13 17:01N 37°39' E 023°44'1325.2
2017-Oct-13 16:31N 37°50' E 023°37'611.7
2017-Oct-13 15:58N 37°56' E 023°37'0 0.0
2017-Oct-13 15:28N 37°56' E 023°37'0 0.0
2017-Oct-13 14:58N 37°56' E 023°37'0 0.0
2017-Oct-13 14:28N 37°56' E 023°37'0 0.0
2017-Oct-13 13:58N 37°56' E 023°37'0 0.0
2017-Oct-13 13:28N 37°56' E 023°37'0 0.0
2017-Oct-13 12:58N 37°56' E 023°37'0 0.0
2017-Oct-13 12:28N 37°56' E 023°37'0 0.0
2017-Oct-13 11:58N 37°56' E 023°37'0 0.2
2017-Oct-13 11:30N 37°56' E 023°38'0 0.4
2017-Oct-13 10:58N 37°57' E 023°38'0 0.0
2017-Oct-13 10:28N 37°57' E 023°38'0 0.0
2017-Oct-13 09:58N 37°57' E 023°38'0 0.0
2017-Oct-13 09:28N 37°57' E 023°38'0 0.0
2017-Oct-13 08:52N 37°57' E 023°38'0 0.0
2017-Oct-13 08:31N 37°57' E 023°38'0 0.2
2017-Oct-13 08:00N 37°57' E 023°38'0 0.1
2017-Oct-13 07:30N 37°57' E 023°38'0 0.0
2017-Oct-13 07:00N 37°57' E 023°38'0 0.0
2017-Oct-13 06:30N 37°57' E 023°38'0 0.0
2017-Oct-13 06:00N 37°57' E 023°38'0 0.0
2017-Oct-13 05:30N 37°57' E 023°38'2 3.8
2017-Oct-13 05:01N 37°55' E 023°37'1121.5
2017-Oct-13 04:31N 37°45' E 023°43'  

Dump ship's entire track history